Time;durP1;ratioP1;P1;durP2;ratioP2;P2;SDS_P1;SDS_P2;PMS_P1;PMS_P2;Temp;Humidity;BMP_temperature;BMP_pressure;BME280_temperature;BME280_humidity;BME280_pressure;Samples;Min_cycle;Max_cycle;Signal;HPM_P1;HPM_P2
2022/02/15 00:00:00;;;;;;;1.33;0.80;;;27.70;62.10;;;;;;4145064;28;20080;-64
2022/02/15 00:02:23;;;;;;;3.28;0.90;;;27.70;62.10;;;;;;4156795;28;20114;-60
2022/02/15 00:04:46;;;;;;;2.67;0.80;;;27.70;62.00;;;;;;4158252;28;20508;-65
2022/02/15 00:07:08;;;;;;;6.65;1.20;;;27.80;62.10;;;;;;4161106;28;20081;-68
2022/02/15 00:09:31;;;;;;;2.97;0.95;;;27.80;62.10;;;;;;4149028;28;20039;-63
2022/02/15 00:11:53;;;;;;;2.30;0.73;;;27.90;62.10;;;;;;4151587;28;20033;-63
2022/02/15 00:14:17;;;;;;;5.03;0.65;;;27.90;62.10;;;;;;4141421;28;20029;-64
2022/02/15 00:16:40;;;;;;;0.85;0.55;;;27.90;62.10;;;;;;4146309;28;20151;-64
2022/02/15 00:19:05;;;;;;;2.97;0.70;;;27.90;62.00;;;;;;4151791;28;20031;-64
2022/02/15 00:21:27;;;;;;;2.95;0.95;;;28.00;62.00;;;;;;4147097;28;20654;-60
2022/02/15 00:23:50;;;;;;;4.45;0.90;;;28.00;62.10;;;;;;4148757;28;20684;-64
2022/02/15 00:26:12;;;;;;;2.20;0.95;;;28.00;62.00;;;;;;4151943;28;20088;-66
2022/02/15 00:28:35;;;;;;;3.45;0.70;;;28.00;62.00;;;;;;4143950;28;20511;-63
2022/02/15 00:30:58;;;;;;;2.00;0.60;;;28.10;62.00;;;;;;4152628;28;20635;-64
2022/02/15 00:33:21;;;;;;;2.10;0.35;;;28.10;62.00;;;;;;4150173;28;20041;-63
2022/02/15 00:35:43;;;;;;;8.47;0.77;;;28.10;61.90;;;;;;4149645;28;20519;-59
2022/02/15 00:38:06;;;;;;;2.38;0.82;;;28.20;62.00;;;;;;4145742;28;20806;-61
2022/02/15 00:40:28;;;;;;;3.05;0.90;;;28.20;62.00;;;;;;4155275;28;20037;-59
2022/02/15 00:42:51;;;;;;;2.70;0.75;;;28.20;62.00;;;;;;4151289;28;20218;-59
2022/02/15 00:45:13;;;;;;;2.15;0.82;;;28.20;61.90;;;;;;4145661;28;20109;-59
2022/02/15 00:47:37;;;;;;;0.65;0.40;;;28.30;61.90;;;;;;4148543;28;20049;-61
2022/02/15 00:50:00;;;;;;;0.73;0.43;;;28.30;61.90;;;;;;4155209;28;20033;-61
2022/02/15 00:52:23;;;;;;;1.85;0.65;;;28.30;61.90;;;;;;4149805;28;20125;-61
2022/02/15 00:54:45;;;;;;;1.15;0.63;;;28.30;61.90;;;;;;4154635;28;20057;-61
2022/02/15 00:57:10;;;;;;;0.73;0.38;;;28.40;61.90;;;;;;4150299;28;20037;-60
2022/02/15 00:59:33;;;;;;;1.20;0.57;;;28.40;62.00;;;;;;4151816;28;20029;-62
2022/02/15 01:01:55;;;;;;;1.63;0.60;;;28.40;61.90;;;;;;4162594;28;20053;-64
2022/02/15 01:04:18;;;;;;;2.70;0.82;;;28.40;62.00;;;;;;4158363;28;20040;-63
2022/02/15 01:06:40;;;;;;;2.95;0.70;;;28.40;62.00;;;;;;4149035;28;20104;-61
2022/02/15 01:09:04;;;;;;;1.02;0.63;;;28.50;62.10;;;;;;4148540;28;20203;-61
2022/02/15 01:11:26;;;;;;;3.80;0.80;;;28.50;62.00;;;;;;4161944;28;20876;-59
2022/02/15 01:13:49;;;;;;;3.53;1.10;;;28.50;62.00;;;;;;4156721;28;20057;-61
2022/02/15 01:16:13;;;;;;;9.23;1.08;;;28.50;61.70;;;;;;4151901;28;20076;-60
2022/02/15 01:18:35;;;;;;;3.00;0.80;;;28.50;62.00;;;;;;4155743;28;20044;-61
2022/02/15 01:20:58;;;;;;;3.42;0.80;;;28.60;62.60;;;;;;4152056;28;20048;-61
2022/02/15 01:23:21;;;;;;;2.72;0.90;;;28.60;61.60;;;;;;4158360;28;20060;-62
2022/02/15 01:25:44;;;;;;;3.28;1.30;;;28.60;60.80;;;;;;4157277;28;20039;-61
2022/02/15 01:28:06;;;;;;;3.20;1.27;;;28.60;60.20;;;;;;4147496;28;20060;-60
2022/02/15 01:30:29;;;;;;;3.42;1.10;;;28.60;59.90;;;;;;4151145;28;20032;-60
2022/02/15 01:32:51;;;;;;;5.47;1.38;;;28.60;59.70;;;;;;4151084;28;20045;-61
2022/02/15 01:35:15;;;;;;;2.80;1.17;;;28.70;59.60;;;;;;4156439;28;20172;-60
2022/02/15 01:37:38;;;;;;;2.53;1.27;;;28.70;59.50;;;;;;4155293;28;20585;-60
2022/02/15 01:40:01;;;;;;;5.05;1.80;;;28.70;59.40;;;;;;4149504;28;20037;-60
2022/02/15 01:42:23;;;;;;;4.10;1.15;;;28.70;59.30;;;;;;4147596;28;20123;-60
2022/02/15 01:44:46;;;;;;;3.22;1.17;;;28.70;59.30;;;;;;4145761;28;20043;-61
2022/02/15 01:47:09;;;;;;;3.42;1.20;;;28.70;59.30;;;;;;4148204;28;20029;-62
2022/02/15 01:49:31;;;;;;;3.67;1.35;;;28.70;59.20;;;;;;4150088;28;20097;-60
2022/02/15 01:51:54;;;;;;;4.53;1.50;;;28.70;59.10;;;;;;4158864;28;20053;-60
2022/02/15 01:54:17;;;;;;;2.65;1.10;;;28.70;59.10;;;;;;4157732;28;21031;-61
2022/02/15 01:56:40;;;;;;;3.25;1.15;;;28.70;59.00;;;;;;4151263;28;20049;-60
2022/02/15 01:59:03;;;;;;;3.10;1.08;;;28.80;59.00;;;;;;4155373;28;20379;-62
2022/02/15 02:01:26;;;;;;;3.65;1.40;;;28.80;59.00;;;;;;4150296;28;20034;-60
2022/02/15 02:03:48;;;;;;;4.25;1.23;;;28.80;59.00;;;;;;4150211;28;20045;-61
2022/02/15 02:06:11;;;;;;;2.30;1.20;;;28.80;58.90;;;;;;4147067;28;20037;-62
2022/02/15 02:08:35;;;;;;;4.47;1.37;;;28.80;58.90;;;;;;4149828;28;20037;-62
2022/02/15 02:11:00;;;;;;;3.53;1.48;;;28.80;58.80;;;;;;4152749;28;20059;-61
2022/02/15 02:13:23;;;;;;;4.00;1.23;;;28.80;58.80;;;;;;4150443;28;20124;-61
2022/02/15 02:15:52;;;;;;;3.78;1.15;;;28.80;58.70;;;;;;4132504;28;20053;-61
2022/02/15 02:18:16;;;;;;;3.90;1.58;;;28.90;58.70;;;;;;4149992;28;20033;-61
2022/02/15 02:20:39;;;;;;;3.55;1.33;;;28.90;58.60;;;;;;4150644;28;20127;-61
2022/02/15 02:23:15;;;;;;;3.70;1.40;;;28.90;58.60;;;;;;4133587;28;20144;-60
2022/02/15 02:25:37;;;;;;;3.35;1.13;;;28.90;58.60;;;;;;4163461;28;20037;-60
2022/02/15 02:28:00;;;;;;;1.87;1.00;;;28.90;58.50;;;;;;4145731;28;20041;-60
2022/02/15 02:30:23;;;;;;;3.57;1.03;;;28.90;58.50;;;;;;4160967;28;20352;-60
2022/02/15 02:32:46;;;;;;;3.47;1.33;;;29.00;58.50;;;;;;4157456;28;20083;-59
2022/02/15 02:35:09;;;;;;;3.15;1.17;;;29.00;58.60;;;;;;4157698;28;20239;-63
2022/02/15 02:37:33;;;;;;;3.33;1.30;;;29.00;58.50;;;;;;4146383;28;20041;-59
2022/02/15 02:39:55;;;;;;;;;;;29.00;58.40;;;;;;4145926;28;20063;-60
2022/02/15 02:42:19;;;;;;;4.10;1.15;;;29.00;58.50;;;;;;4151522;28;19940;-62
2022/02/15 02:44:42;;;;;;;2.30;1.05;;;29.10;58.40;;;;;;4159207;28;20052;-59
2022/02/15 02:47:06;;;;;;;2.25;0.90;;;29.10;58.40;;;;;;4149679;28;20128;-60
2022/02/15 02:49:29;;;;;;;4.75;1.40;;;29.00;58.30;;;;;;4144810;28;20076;-61
2022/02/15 02:51:51;;;;;;;5.03;1.33;;;29.10;58.40;;;;;;4146897;28;20046;-61
2022/02/15 02:54:13;;;;;;;3.03;1.00;;;29.10;58.40;;;;;;4161628;28;20506;-60
2022/02/15 02:56:36;;;;;;;3.13;0.95;;;29.10;58.30;;;;;;4160352;28;20041;-61
2022/02/15 02:58:58;;;;;;;1.42;0.77;;;29.10;58.30;;;;;;4147318;28;20037;-61
2022/02/15 03:01:21;;;;;;;2.60;1.10;;;29.10;58.30;;;;;;4143458;28;20660;-59
2022/02/15 03:03:43;;;;;;;3.97;1.23;;;29.10;58.20;;;;;;4142419;28;20041;-60
2022/02/15 03:06:07;;;;;;;2.80;0.90;;;29.20;58.30;;;;;;4146726;28;20029;-60
2022/02/15 03:08:29;;;;;;;3.13;1.23;;;29.20;58.30;;;;;;4155168;28;20038;-60
2022/02/15 03:10:52;;;;;;;4.63;1.05;;;29.20;58.30;;;;;;4144607;28;20041;-61
2022/02/15 03:13:14;;;;;;;2.00;1.10;;;29.20;58.20;;;;;;4145401;28;20068;-60
2022/02/15 03:15:37;;;;;;;2.80;1.13;;;29.20;58.20;;;;;;4145743;28;20047;-61
2022/02/15 03:17:59;;;;;;;4.35;1.30;;;29.20;58.20;;;;;;4148199;28;20033;-61
2022/02/15 03:20:21;;;;;;;3.83;0.80;;;29.20;58.20;;;;;;4146366;28;20111;-60
2022/02/15 03:22:44;;;;;;;2.20;0.85;;;29.30;58.20;;;;;;4144945;28;20071;-60
2022/02/15 03:25:07;;;;;;;2.33;1.05;;;29.30;58.20;;;;;;4145799;28;20680;-62
2022/02/15 03:27:29;;;;;;;2.50;1.03;;;29.30;58.20;;;;;;4146267;28;20045;-60
2022/02/15 03:29:52;;;;;;;2.28;1.00;;;29.30;58.20;;;;;;4145594;28;20896;-61
2022/02/15 03:32:15;;;;;;;3.85;1.05;;;29.30;58.10;;;;;;4159874;28;20044;-61
2022/02/15 03:34:37;;;;;;;1.90;0.82;;;29.30;58.10;;;;;;4154036;28;20394;-61
2022/02/15 03:37:00;;;;;;;1.30;0.70;;;29.30;58.10;;;;;;4151325;28;20045;-62
2022/02/15 03:39:22;;;;;;;2.38;1.10;;;29.30;58.00;;;;;;4148690;28;20710;-61
2022/02/15 03:44:25;;;;;;;3.28;0.88;;;29.40;58.00;;;;;;4146104;28;20438;-60
2022/02/15 03:46:49;;;;;;;4.70;1.65;;;29.40;58.00;;;;;;4153887;28;20083;-61
2022/02/15 03:49:12;;;;;;;2.90;1.25;;;29.40;57.90;;;;;;4149402;28;20053;-61
2022/02/15 03:51:34;;;;;;;3.83;1.10;;;29.40;57.90;;;;;;4147004;28;20092;-62
2022/02/15 03:53:57;;;;;;;2.03;0.80;;;29.50;57.90;;;;;;4145858;28;20581;-61
2022/02/15 03:56:19;;;;;;;3.47;1.23;;;29.50;57.90;;;;;;4131295;28;20564;-60
2022/02/15 03:58:42;;;;;;;2.03;0.73;;;29.50;57.80;;;;;;4145692;28;20266;-61
2022/02/15 04:01:05;;;;;;;2.35;1.00;;;29.50;57.70;;;;;;4155943;28;20065;-60
2022/02/15 04:03:27;;;;;;;3.80;1.13;;;29.60;57.90;;;;;;4161079;28;20059;-60
2022/02/15 04:05:50;;;;;;;1.27;0.65;;;29.60;58.40;;;;;;4159136;28;20048;-61
2022/02/15 04:08:12;;;;;;;1.63;0.85;;;29.60;57.60;;;;;;4144917;28;20483;-61
2022/02/15 04:10:35;;;;;;;2.50;1.00;;;29.60;57.60;;;;;;4143104;28;20060;-61
2022/02/15 04:12:57;;;;;;;2.33;0.98;;;29.70;57.60;;;;;;4145203;28;20043;-61
2022/02/15 04:15:21;;;;;;;1.95;0.93;;;29.70;57.60;;;;;;4142748;28;20053;-61
2022/02/15 04:17:43;;;;;;;3.55;1.30;;;29.70;57.40;;;;;;4144003;28;20045;-61
2022/02/15 04:20:07;;;;;;;4.07;1.30;;;29.70;57.30;;;;;;4156378;28;20025;-61
2022/02/15 04:22:30;;;;;;;3.10;1.20;;;29.80;57.40;;;;;;4153892;28;20049;-61
2022/02/15 04:24:52;;;;;;;2.10;1.07;;;29.80;57.30;;;;;;4151906;28;20488;-61
2022/02/15 04:27:15;;;;;;;1.55;0.85;;;29.80;57.20;;;;;;4160546;28;21110;-60
2022/02/15 04:29:38;;;;;;;2.60;0.80;;;29.90;57.20;;;;;;4160782;28;20169;-62
2022/02/15 04:32:00;;;;;;;3.95;1.08;;;29.90;57.20;;;;;;4147149;28;20671;-62
2022/02/15 04:34:22;;;;;;;1.77;0.80;;;30.00;57.20;;;;;;4155988;28;20067;-61
2022/02/15 04:36:45;;;;;;;3.08;0.90;;;30.00;57.10;;;;;;4164525;28;20079;-60
2022/02/15 04:39:08;;;;;;;2.70;0.90;;;30.00;57.00;;;;;;4152844;28;20044;-60
2022/02/15 04:41:30;;;;;;;1.98;0.77;;;30.10;57.00;;;;;;4152270;28;20505;-62
2022/02/15 04:43:52;;;;;;;2.53;1.00;;;30.10;56.80;;;;;;4147326;28;20037;-63
2022/02/15 04:46:15;;;;;;;2.92;0.90;;;30.20;56.80;;;;;;4150254;28;20077;-61
2022/02/15 04:48:38;;;;;;;2.38;0.95;;;30.20;57.00;;;;;;4154356;28;20082;-66
2022/02/15 04:51:00;;;;;;;1.88;0.88;;;30.30;57.00;;;;;;4163575;28;20080;-64
2022/02/15 04:53:23;;;;;;;3.53;0.88;;;30.40;57.20;;;;;;4154648;28;20113;-64
2022/02/15 04:55:45;;;;;;;1.80;0.70;;;30.50;57.20;;;;;;4156052;28;20050;-66
2022/02/15 04:58:08;;;;;;;1.90;0.73;;;30.50;57.30;;;;;;4165172;28;20744;-65
2022/02/15 05:00:31;;;;;;;5.75;1.65;;;30.70;57.20;;;;;;4156898;28;20108;-66
2022/02/15 05:02:53;;;;;;;4.93;1.67;;;30.60;55.10;;;;;;4158465;28;20128;-64
2022/02/15 05:05:16;;;;;;;3.50;1.65;;;30.40;53.90;;;;;;4159591;28;20153;-61
2022/02/15 05:07:38;;;;;;;7.15;1.88;;;30.00;53.30;;;;;;4153412;28;20888;-67
2022/02/15 05:10:03;;;;;;;4.25;1.50;;;29.70;52.70;;;;;;4154916;28;20090;-66
2022/02/15 05:12:25;;;;;;;3.58;1.35;;;29.40;52.20;;;;;;4155632;28;20553;-66
2022/02/15 05:14:48;;;;;;;3.47;1.63;;;29.20;52.10;;;;;;4148350;28;20045;-65
2022/02/15 05:17:10;;;;;;;7.28;3.47;;;28.90;52.10;;;;;;4154524;28;20071;-64
2022/02/15 05:19:33;;;;;;;9.15;4.10;;;28.70;52.00;;;;;;4148699;28;20037;-64
2022/02/15 05:21:56;;;;;;;11.20;4.72;;;28.50;51.70;;;;;;4150407;28;20051;-65
2022/02/15 05:24:18;;;;;;;8.27;4.18;;;28.30;51.80;;;;;;4155257;28;20087;-66
2022/02/15 05:26:40;;;;;;;7.38;3.60;;;28.10;52.50;;;;;;4158774;28;20491;-64
2022/02/15 05:29:03;;;;;;;6.95;3.20;;;27.90;51.80;;;;;;4149143;28;20045;-65
2022/02/15 05:31:26;;;;;;;6.63;3.03;;;27.80;51.80;;;;;;4149903;28;20120;-64
2022/02/15 05:33:48;;;;;;;5.60;2.88;;;27.60;51.90;;;;;;4150412;28;20041;-64
2022/02/15 05:36:12;;;;;;;6.57;2.70;;;27.50;51.80;;;;;;4150548;28;20139;-65
2022/02/15 05:38:35;;;;;;;6.38;3.00;;;27.40;52.10;;;;;;4150333;28;20038;-64
2022/02/15 05:40:57;;;;;;;6.57;2.70;;;27.30;52.30;;;;;;4156173;28;20041;-64
2022/02/15 05:45:55;;;;;;;3.92;2.17;;;27.10;52.20;;;;;;3756247;26;20068;-70
2022/02/15 05:48:30;;;;;;;3.58;1.85;;;27.00;52.10;;;;;;4139065;28;20038;-70
2022/02/15 05:50:58;;;;;;;4.90;2.30;;;26.80;52.30;;;;;;4124747;28;20053;-70
2022/02/15 05:53:34;;;;;;;3.85;1.95;;;26.70;52.30;;;;;;4130137;28;20034;-73
2022/02/15 05:56:02;;;;;;;3.83;1.95;;;26.70;52.40;;;;;;4152084;28;20103;-69
2022/02/15 05:58:34;;;;;;;2.15;1.15;;;26.60;52.80;;;;;;4152946;28;20435;-70
2022/02/15 06:01:06;;;;;;;3.05;1.58;;;26.50;52.60;;;;;;4141549;28;20715;-69
2022/02/15 06:06:10;;;;;;;3.58;1.58;;;26.40;52.70;;;;;;4157210;28;20473;-70
2022/02/15 06:08:36;;;;;;;3.42;1.65;;;26.30;52.50;;;;;;4157877;28;20049;-69
2022/02/15 06:10:59;;;;;;;3.60;1.27;;;26.20;52.40;;;;;;4156881;28;20045;-72
2022/02/15 06:13:21;;;;;;;5.18;1.50;;;26.10;52.50;;;;;;4152702;28;20057;-71
2022/02/15 06:15:53;;;;;;;2.33;1.00;;;26.10;52.50;;;;;;4148563;28;20053;-70
2022/02/15 06:18:25;;;;;;;3.53;1.23;;;26.00;52.70;;;;;;4158596;28;20052;-70
2022/02/15 06:21:06;;;;;;;3.88;1.55;;;26.00;52.90;;;;;;4143080;28;20042;-72
2022/02/15 06:23:31;;;;;;;1.88;1.10;;;25.90;53.50;;;;;;4144369;28;20062;-70
2022/02/15 06:26:02;;;;;;;2.40;1.38;;;26.10;53.60;;;;;;4155136;28;20204;-70
2022/02/15 06:28:31;;;;;;;2.88;1.10;;;26.40;53.70;;;;;;4154944;28;20042;-70
2022/02/15 06:30:56;;;;;;;3.08;1.10;;;26.60;53.80;;;;;;4155421;28;20387;-72
2022/02/15 06:33:19;;;;;;;2.53;1.08;;;26.90;54.00;;;;;;4141410;28;20110;-71
2022/02/15 06:35:47;;;;;;;3.05;1.23;;;27.20;54.00;;;;;;4150539;28;20039;-74
2022/02/15 06:38:19;;;;;;;3.15;1.05;;;27.40;54.00;;;;;;4137780;28;20038;-72
2022/02/15 06:40:50;;;;;;;5.20;1.70;;;27.60;55.00;;;;;;4144691;28;20073;-71
2022/02/15 06:43:22;;;;;;;5.60;1.50;;;27.80;54.10;;;;;;4149047;28;20053;-69
2022/02/15 06:45:53;;;;;;;2.63;1.27;;;27.60;52.60;;;;;;4108541;28;20157;-72
2022/02/15 06:48:25;;;;;;;3.08;1.50;;;27.40;52.20;;;;;;4124817;28;20038;-70
2022/02/15 06:50:57;;;;;;;3.30;1.27;;;27.30;51.80;;;;;;4118387;28;20080;-70
2022/02/15 06:53:39;;;;;;;3.20;1.30;;;27.10;51.80;;;;;;4134658;28;20049;-70
2022/02/15 06:56:05;;;;;;;2.03;1.05;;;27.00;51.80;;;;;;4124960;28;20030;-71
2022/02/15 06:58:30;;;;;;;3.75;1.10;;;26.90;51.80;;;;;;4130343;28;20034;-71
2022/02/15 07:00:53;;;;;;;3.42;1.73;;;26.80;51.90;;;;;;4123853;28;20475;-72
2022/02/15 07:03:15;;;;;;;3.13;1.33;;;26.70;51.90;;;;;;4110429;28;20043;-70
2022/02/15 07:05:47;;;;;;;3.63;0.90;;;26.70;51.70;;;;;;4125670;28;20049;-69
2022/02/15 07:08:18;;;;;;;4.15;1.33;;;26.60;51.50;;;;;;4123163;28;20037;-72
2022/02/15 07:10:54;;;;;;;1.65;1.00;;;26.50;51.70;;;;;;4123947;28;20073;-70
2022/02/15 07:13:16;;;;;;;3.17;1.05;;;26.50;51.60;;;;;;4128547;28;20605;-70
2022/02/15 07:15:42;;;;;;;2.65;1.05;;;26.40;51.60;;;;;;4130234;28;20077;-72
2022/02/15 07:18:05;;;;;;;2.75;1.08;;;26.40;51.80;;;;;;4127483;28;20130;-70
2022/02/15 07:20:30;;;;;;;2.55;0.90;;;26.30;51.60;;;;;;4125054;28;20388;-74
2022/02/15 07:22:53;;;;;;;4.90;1.45;;;26.20;51.50;;;;;;4127759;28;20554;-71
2022/02/15 07:25:15;;;;;;;3.70;1.50;;;26.10;51.20;;;;;;4128810;28;20211;-68
2022/02/15 07:27:45;;;;;;;2.55;1.00;;;26.00;51.50;;;;;;4110906;28;20046;-69
2022/02/15 07:30:08;;;;;;;3.95;1.13;;;25.90;51.40;;;;;;4129093;28;20040;-70
2022/02/15 07:32:30;;;;;;;1.85;1.13;;;25.80;51.60;;;;;;4127274;28;20042;-71
2022/02/15 07:35:02;;;;;;;10.30;1.42;;;25.70;51.70;;;;;;4131054;28;20038;-71
2022/02/15 07:37:34;;;;;;;5.13;1.25;;;25.60;51.70;;;;;;4119656;28;20038;-71
2022/02/15 07:40:05;;;;;;;2.75;1.25;;;25.50;51.80;;;;;;4124708;28;20827;-75
2022/02/15 07:42:35;;;;;;;2.50;1.10;;;25.30;51.80;;;;;;4134051;28;20356;-74
2022/02/15 07:45:18;;;;;;;3.33;1.27;;;25.20;52.30;;;;;;4118651;28;20060;-71
2022/02/15 07:47:41;;;;;;;3.00;1.10;;;25.20;53.20;;;;;;4113963;28;20046;-72
2022/02/15 07:50:12;;;;;;;4.15;1.10;;;25.40;54.00;;;;;;4113523;28;20568;-70
2022/02/15 07:52:44;;;;;;;3.60;1.30;;;25.50;54.60;;;;;;4134640;28;20046;-70
2022/02/15 07:55:16;;;;;;;3.17;1.17;;;25.50;53.40;;;;;;4128864;28;20102;-73
2022/02/15 07:57:41;;;;;;;3.00;0.90;;;25.50;54.10;;;;;;4109925;28;20038;-71
2022/02/15 08:00:05;;;;;;;2.13;1.00;;;25.50;54.60;;;;;;4116088;28;20467;-72
2022/02/15 08:02:27;;;;;;;;;;;25.70;55.00;;;;;;4131460;28;20046;-71
2022/02/15 08:04:50;;;;;;;3.42;1.00;;;25.80;55.30;;;;;;4120110;28;19928;-71
2022/02/15 08:07:12;;;;;;;4.63;1.17;;;26.00;55.60;;;;;;4131912;28;20173;-71
2022/02/15 08:09:44;;;;;;;8.45;1.25;;;26.10;55.80;;;;;;4128774;28;20113;-71
2022/02/15 08:12:18;;;;;;;2.60;0.90;;;26.30;56.20;;;;;;4128251;28;20033;-73
2022/02/15 08:14:41;;;;;;;1.65;0.80;;;26.40;56.30;;;;;;4127348;28;20103;-69
2022/02/15 08:17:04;;;;;;;2.40;0.95;;;26.60;56.60;;;;;;4128754;28;20042;-70
2022/02/15 08:19:27;;;;;;;2.05;0.80;;;26.70;56.60;;;;;;4124316;28;20184;-69
2022/02/15 08:22:10;;;;;;;4.00;1.35;;;26.80;56.70;;;;;;4130662;28;20211;-73
2022/02/15 08:24:33;;;;;;;3.30;1.17;;;26.90;56.90;;;;;;4127840;28;20151;-70
2022/02/15 08:27:00;;;;;;;3.55;0.90;;;27.00;56.80;;;;;;4118071;28;20145;-70
2022/02/15 08:29:33;;;;;;;2.28;0.90;;;27.10;56.70;;;;;;4115128;28;20088;-70
2022/02/15 08:32:05;;;;;;;2.80;0.90;;;27.20;56.80;;;;;;4126599;28;20042;-72
2022/02/15 08:34:36;;;;;;;4.20;1.00;;;27.30;56.80;;;;;;4126828;28;20037;-75
2022/02/15 08:36:59;;;;;;;1.13;0.60;;;27.30;56.80;;;;;;4127648;28;20034;-73
2022/02/15 08:39:22;;;;;;;2.57;0.70;;;27.40;56.90;;;;;;4130152;28;20065;-75
2022/02/15 08:41:47;;;;;;;2.88;0.75;;;27.50;56.90;;;;;;4126504;28;20278;-74
2022/02/15 08:44:10;;;;;;;2.85;0.60;;;27.50;56.90;;;;;;4127942;28;20038;-72
2022/02/15 08:46:33;;;;;;;4.03;1.13;;;27.60;57.00;;;;;;4112619;28;20046;-73
2022/02/15 08:49:04;;;;;;;2.33;0.70;;;27.70;57.60;;;;;;4130917;28;20042;-71
2022/02/15 08:51:37;;;;;;;2.85;1.00;;;27.70;57.00;;;;;;4127967;28;20122;-69
2022/02/15 08:54:02;;;;;;;4.78;1.00;;;27.80;57.10;;;;;;4122385;28;20038;-69
2022/02/15 08:56:25;;;;;;;4.63;1.00;;;27.80;57.00;;;;;;4123714;28;20038;-75
2022/02/15 08:58:49;;;;;;;4.25;0.77;;;27.90;57.20;;;;;;4118131;28;20153;-70
2022/02/15 09:01:21;;;;;;;2.25;0.80;;;27.90;57.40;;;;;;4107485;28;20926;-71
2022/02/15 09:03:47;;;;;;;3.05;0.95;;;28.00;57.50;;;;;;4136585;28;20042;-70
2022/02/15 09:06:10;;;;;;;6.25;1.08;;;28.00;57.60;;;;;;4121637;28;20157;-69
2022/02/15 09:08:33;;;;;;;3.58;1.38;;;28.10;57.70;;;;;;4137101;28;20037;-72
2022/02/15 09:10:55;;;;;;;;;;;28.10;57.70;;;;;;4136578;28;20107;-72
2022/02/15 09:13:18;;;;;;;3.03;1.10;;;28.20;57.30;;;;;;4137686;28;19913;-73
2022/02/15 09:15:43;;;;;;;3.40;0.95;;;28.20;57.70;;;;;;4135658;28;20104;-74
2022/02/15 09:18:06;;;;;;;4.63;1.10;;;28.20;57.70;;;;;;4121150;28;20038;-71
2022/02/15 09:20:28;;;;;;;2.97;0.90;;;28.30;57.80;;;;;;4137451;28;20333;-73
2022/02/15 09:23:00;;;;;;;2.35;0.80;;;28.30;57.80;;;;;;4140990;28;20136;-72
2022/02/15 09:25:31;;;;;;;2.78;1.10;;;28.30;57.80;;;;;;4140725;28;20065;-72
2022/02/15 09:27:53;;;;;;;1.35;0.73;;;28.30;57.80;;;;;;4126164;28;20089;-73
2022/02/15 09:30:17;;;;;;;1.75;0.68;;;28.40;57.90;;;;;;4139827;28;20100;-72
2022/02/15 09:32:48;;;;;;;2.97;0.75;;;28.40;57.80;;;;;;4139424;28;20081;-74
2022/02/15 09:35:34;;;;;;;2.75;0.60;;;28.40;57.90;;;;;;4139727;28;20432;-73
2022/02/15 09:37:56;;;;;;;1.73;0.52;;;28.50;57.90;;;;;;4099238;28;20042;-73
2022/02/15 09:40:19;;;;;;;1.42;0.45;;;28.50;57.90;;;;;;4140032;28;20065;-72
2022/02/15 09:42:42;;;;;;;1.42;0.65;;;28.50;57.90;;;;;;4139433;28;20164;-71
2022/02/15 09:45:07;;;;;;;1.92;0.68;;;28.50;57.90;;;;;;4139447;28;20054;-71
2022/02/15 09:47:34;;;;;;;2.08;0.63;;;28.50;57.90;;;;;;4140177;28;20540;-69
2022/02/15 09:50:07;;;;;;;3.47;0.75;;;28.60;58.00;;;;;;4138311;28;20041;-71
2022/02/15 09:52:45;;;;;;;1.17;0.60;;;28.60;57.90;;;;;;4125548;28;20162;-69
2022/02/15 09:55:08;;;;;;;2.03;0.60;;;28.60;57.90;;;;;;4124965;28;20057;-69
2022/02/15 09:57:41;;;;;;;1.58;0.75;;;28.60;57.90;;;;;;4125581;28;20070;-70
2022/02/15 10:00:09;;;;;;;1.33;0.60;;;28.70;57.90;;;;;;4140910;28;20034;-70
2022/02/15 10:02:35;;;;;;;2.30;0.40;;;28.70;57.90;;;;;;4140388;28;20050;-70
2022/02/15 10:04:58;;;;;;;2.65;0.85;;;28.70;57.90;;;;;;4140841;28;20097;-68
2022/02/15 10:07:24;;;;;;;;;;;28.70;57.90;;;;;;4129505;28;20092;-69
2022/02/15 10:09:53;;;;;;;3.70;0.77;;;28.80;58.00;;;;;;4126362;28;19917;-66
2022/02/15 10:12:29;;;;;;;1.90;0.55;;;28.80;58.00;;;;;;4143936;28;20073;-71
2022/02/15 10:14:58;;;;;;;2.25;0.80;;;28.80;58.00;;;;;;4142764;28;20038;-68
2022/02/15 10:17:26;;;;;;;1.58;0.57;;;28.80;58.00;;;;;;4130272;28;20081;-69
2022/02/15 10:19:52;;;;;;;1.50;0.60;;;28.80;58.00;;;;;;4117567;28;20042;-70
2022/02/15 10:22:17;;;;;;;1.35;0.60;;;28.80;58.00;;;;;;4143286;28;20077;-68
2022/02/15 10:24:49;;;;;;;3.28;1.30;;;28.70;54.20;;;;;;4132690;28;20141;-69
2022/02/15 10:27:14;;;;;;;2.55;1.10;;;28.40;52.50;;;;;;4121648;28;20038;-70
2022/02/15 10:29:48;;;;;;;2.65;0.98;;;28.10;51.40;;;;;;4124071;28;20055;-70
2022/02/15 10:32:22;;;;;;;1.40;0.90;;;27.80;50.90;;;;;;4134629;28;20069;-70
2022/02/15 10:34:53;;;;;;;;;;;27.40;51.00;;;;;;4126935;28;20035;-69
2022/02/15 10:37:23;;;;;;;2.53;1.10;;;27.20;51.10;;;;;;4125478;28;20329;-69
2022/02/15 10:40:00;;;;;;;4.78;1.10;;;27.00;50.70;;;;;;4139137;28;20041;-70
2022/02/15 10:42:29;;;;;;;2.63;1.00;;;26.70;50.00;;;;;;4140301;28;20045;-72
2022/02/15 10:45:06;;;;;;;2.35;1.10;;;26.50;51.00;;;;;;4124762;28;20057;-72
2022/02/15 10:47:37;;;;;;;3.33;1.10;;;26.30;51.00;;;;;;4128185;28;20044;-71
2022/02/15 10:50:06;;;;;;;1.85;0.88;;;26.10;50.90;;;;;;4139231;28;20120;-72
2022/02/15 10:52:33;;;;;;;2.83;1.05;;;25.90;51.30;;;;;;4138979;28;20444;-71
2022/02/15 10:55:02;;;;;;;2.50;0.93;;;25.70;51.00;;;;;;4139197;28;20092;-68
2022/02/15 10:57:25;;;;;;;2.47;1.30;;;25.60;50.80;;;;;;4124989;28;20041;-69
2022/02/15 10:59:49;;;;;;;1.80;0.88;;;25.40;51.20;;;;;;4139608;28;20403;-72
2022/02/15 11:02:26;;;;;;;2.40;0.90;;;25.30;51.30;;;;;;4138721;28;20467;-72
2022/02/15 11:04:49;;;;;;;1.55;0.88;;;25.10;51.20;;;;;;4132981;28;20264;-70
2022/02/15 11:07:14;;;;;;;3.20;1.30;;;24.90;50.90;;;;;;4127528;28;20041;-74
2022/02/15 11:09:51;;;;;;;1.83;1.00;;;24.80;51.80;;;;;;4089912;28;20800;-73
2022/02/15 11:12:35;;;;;;;2.35;1.13;;;24.70;51.90;;;;;;4104907;28;20109;-74
2022/02/15 11:15:03;;;;;;;1.67;0.80;;;24.50;51.90;;;;;;4087788;28;20054;-72
2022/02/15 11:17:31;;;;;;;2.45;0.93;;;24.50;53.10;;;;;;4077067;28;20371;-76
2022/02/15 11:20:01;;;;;;;1.67;0.80;;;24.60;53.70;;;;;;4106064;28;20035;-75
2022/02/15 11:22:30;;;;;;;2.63;1.33;;;24.70;54.60;;;;;;4095427;28;20053;-75
2022/02/15 11:24:53;;;;;;;1.65;0.90;;;24.70;53.30;;;;;;4101522;28;20045;-72
2022/02/15 11:27:20;;;;;;;2.17;0.98;;;24.60;52.60;;;;;;4094414;28;20041;-73
2022/02/15 11:29:54;;;;;;;2.20;1.20;;;24.40;52.90;;;;;;4102396;28;20049;-72
2022/02/15 11:32:29;;;;;;;1.13;0.70;;;24.20;53.20;;;;;;4080325;28;20053;-74
2022/02/15 11:34:51;;;;;;;3.33;1.15;;;24.30;53.70;;;;;;4078396;28;20173;-73
2022/02/15 11:37:22;;;;;;;4.72;1.27;;;24.40;54.40;;;;;;4092915;28;20136;-74
2022/02/15 11:39:56;;;;;;;2.67;0.75;;;24.50;54.90;;;;;;4092159;28;20051;-75
2022/02/15 11:42:21;;;;;;;2.15;0.93;;;24.60;55.20;;;;;;4087038;28;20498;-75
2022/02/15 11:44:45;;;;;;;1.30;0.80;;;24.70;55.40;;;;;;4088326;28;20069;-75
2022/02/15 11:47:24;;;;;;;2.63;0.88;;;24.80;55.50;;;;;;4090267;28;20115;-74
2022/02/15 11:50:12;;;;;;;2.35;0.88;;;24.90;55.70;;;;;;4095740;28;20186;-81
2022/02/15 11:52:35;;;;;;;4.35;0.88;;;25.10;56.10;;;;;;4104582;28;20451;-71
2022/02/15 11:55:13;;;;;;;3.55;1.08;;;25.10;55.90;;;;;;4081766;28;20495;-72
2022/02/15 11:57:36;;;;;;;2.53;0.77;;;25.20;55.90;;;;;;4081127;28;20093;-72
2022/02/15 12:00:08;;;;;;;2.67;0.85;;;25.30;56.00;;;;;;4079437;28;20375;-73
2022/02/15 12:02:50;;;;;;;6.97;1.40;;;25.40;57.00;;;;;;4081988;28;20069;-71
2022/02/15 12:05:30;;;;;;;8.65;1.23;;;25.40;58.00;;;;;;4183718;27;20954;-59
2022/02/15 12:07:55;;;;;;;13.18;1.30;;;25.50;58.70;;;;;;4165236;28;20070;-61
2022/02/15 12:10:17;;;;;;;8.52;1.55;;;25.60;58.60;;;;;;4159570;28;20040;-61
2022/02/15 12:12:41;;;;;;;15.75;1.40;;;25.60;59.20;;;;;;4155987;28;20088;-60
2022/02/15 12:15:06;;;;;;;6.75;1.40;;;25.70;59.40;;;;;;4143524;28;20556;-59
2022/02/15 12:17:29;;;;;;;6.05;1.13;;;25.80;59.80;;;;;;4145763;28;21113;-61
2022/02/15 12:19:59;;;;;;;4.38;1.10;;;25.80;59.80;;;;;;4156433;28;20044;-57
2022/02/15 12:22:22;;;;;;;5.22;1.33;;;25.90;59.80;;;;;;4130565;28;20131;-61
2022/02/15 12:24:49;;;;;;;7.32;1.20;;;26.00;60.00;;;;;;4155916;28;20232;-59
2022/02/15 12:27:14;;;;;;;2.22;0.88;;;26.00;60.10;;;;;;4146733;28;20042;-59
2022/02/15 12:29:37;;;;;;;8.32;1.42;;;26.00;60.20;;;;;;4148923;28;20059;-60
2022/02/15 12:32:03;;;;;;;5.27;1.30;;;26.10;60.30;;;;;;4155587;28;20474;-59
2022/02/15 12:34:26;;;;;;;11.65;1.42;;;26.10;60.50;;;;;;4148239;28;20040;-62
2022/02/15 12:36:49;;;;;;;15.13;2.40;;;26.20;60.30;;;;;;4154664;28;20193;-62
2022/02/15 12:39:11;;;;;;;6.03;1.95;;;26.20;60.30;;;;;;4151103;28;20440;-62
2022/02/15 12:41:41;;;;;;;15.43;1.70;;;26.20;60.40;;;;;;4144645;28;20127;-59
2022/02/15 12:44:06;;;;;;;4.57;0.93;;;26.30;60.20;;;;;;4156577;28;20052;-59
2022/02/15 12:46:29;;;;;;;4.57;1.15;;;26.40;60.30;;;;;;4145057;28;20052;-60